Time;durP1;ratioP1;P1;durP2;ratioP2;P2;SDS_P1;SDS_P2;PMS_P1;PMS_P2;Temp;Humidity;BMP_temperature;BMP_pressure;BME280_temperature;BME280_humidity;BME280_pressure;Samples;Min_cycle;Max_cycle;Signal;HPM_P1;HPM_P2
2021/01/18 00:01:24;;;;;;;11.97;2.83;;;5.00;99.90;;;;;;5030370;28;20657;-74
2021/01/18 00:03:50;;;;;;;4.90;1.73;;;4.90;99.90;;;;;;5038649;28;20197;-74
2021/01/18 00:06:17;;;;;;;9.37;2.20;;;4.80;99.90;;;;;;5035300;28;20209;-74
2021/01/18 00:08:44;;;;;;;9.37;2.30;;;4.80;99.90;;;;;;5020886;28;20283;-75
2021/01/18 00:11:15;;;;;;;8.17;2.30;;;4.90;99.90;;;;;;5024896;28;20573;-74
2021/01/18 00:13:43;;;;;;;8.33;2.77;;;5.00;99.90;;;;;;5040120;28;20818;-74
2021/01/18 00:16:16;;;;;;;8.50;2.20;;;5.10;99.90;;;;;;5020928;28;20304;-74
2021/01/18 00:18:43;;;;;;;7.00;2.37;;;5.20;99.90;;;;;;5038432;28;20206;-75
2021/01/18 00:21:09;;;;;;;6.63;2.03;;;5.10;99.90;;;;;;5038819;28;20313;-74
2021/01/18 00:23:39;;;;;;;13.40;3.00;;;5.00;99.90;;;;;;5043514;28;20236;-74
2021/01/18 00:26:06;;;;;;;5.97;2.00;;;4.90;99.90;;;;;;5051897;28;20686;-74
2021/01/18 00:28:33;;;;;;;5.73;1.97;;;4.90;99.90;;;;;;5017459;28;20202;-74
2021/01/18 00:31:01;;;;;;;10.10;2.40;;;4.90;99.90;;;;;;5035476;28;20226;-74
2021/01/18 00:33:28;;;;;;;8.03;2.47;;;4.80;99.90;;;;;;5054079;28;20205;-75
2021/01/18 00:35:55;;;;;;;5.87;2.20;;;4.70;99.90;;;;;;5038785;28;20196;-74
2021/01/18 00:38:22;;;;;;;8.27;2.80;;;4.60;99.90;;;;;;5041464;28;20314;-74
2021/01/18 00:40:48;;;;;;;8.87;2.27;;;4.60;99.90;;;;;;5019130;28;20751;-74
2021/01/18 00:43:14;;;;;;;5.73;2.10;;;4.60;99.90;;;;;;5037941;28;20880;-74
2021/01/18 00:45:41;;;;;;;8.00;2.63;;;4.50;99.90;;;;;;5021864;28;20197;-74
2021/01/18 00:48:08;;;;;;;6.03;2.43;;;4.50;99.90;;;;;;5030894;28;20209;-74
2021/01/18 00:50:34;;;;;;;8.87;2.37;;;4.40;99.90;;;;;;5033684;28;20286;-74
2021/01/18 00:53:01;;;;;;;11.47;2.73;;;4.50;99.90;;;;;;5018695;28;20197;-74
2021/01/18 00:55:28;;;;;;;7.70;2.60;;;4.60;99.90;;;;;;5037469;28;20291;-74
2021/01/18 00:57:55;;;;;;;11.57;2.73;;;4.50;99.90;;;;;;5037134;28;20258;-75
2021/01/18 01:00:23;;;;;;;5.27;2.40;;;4.40;99.90;;;;;;5036445;28;20271;-74
2021/01/18 01:02:55;;;;;;;9.33;3.07;;;4.40;99.90;;;;;;5053053;28;20218;-74
2021/01/18 01:05:24;;;;;;;8.30;2.43;;;4.30;99.90;;;;;;5020845;28;20205;-75
2021/01/18 01:07:53;;;;;;;10.97;2.70;;;4.30;99.90;;;;;;5035592;28;20735;-74
2021/01/18 01:10:45;;;;;;;13.57;2.80;;;4.30;99.90;;;;;;5025904;28;20200;-73
2021/01/18 01:13:11;;;;;;;6.13;2.30;;;4.30;99.90;;;;;;5036326;28;20246;-74
2021/01/18 01:15:38;;;;;;;7.67;3.20;;;4.30;99.90;;;;;;5036421;28;20227;-74
2021/01/18 01:18:04;;;;;;;9.60;2.37;;;4.30;99.90;;;;;;5037114;28;20213;-74
2021/01/18 01:20:30;;;;;;;9.43;2.63;;;4.30;99.90;;;;;;5039889;28;20288;-74
2021/01/18 01:22:57;;;;;;;7.60;2.70;;;4.30;99.90;;;;;;5034896;28;20399;-75
2021/01/18 01:25:25;;;;;;;9.47;3.00;;;4.20;99.90;;;;;;5042406;28;20244;-74
2021/01/18 01:27:52;;;;;;;6.43;2.60;;;4.20;99.90;;;;;;5028068;28;20240;-74
2021/01/18 01:30:23;;;;;;;7.73;3.07;;;4.10;99.90;;;;;;5037990;28;20215;-74
2021/01/18 01:32:53;;;;;;;8.67;2.77;;;4.20;99.90;;;;;;5034368;28;20285;-75
2021/01/18 01:35:25;;;;;;;7.80;2.80;;;4.20;99.90;;;;;;5037585;28;20222;-74
2021/01/18 01:37:52;;;;;;;6.43;2.43;;;4.20;99.90;;;;;;5020734;28;20208;-74
2021/01/18 01:40:19;;;;;;;7.90;2.67;;;4.10;99.90;;;;;;5034543;28;20559;-75
2021/01/18 01:42:46;;;;;;;16.30;3.37;;;4.20;99.90;;;;;;5036686;28;20315;-74
2021/01/18 01:45:14;;;;;;;6.20;2.67;;;4.20;99.90;;;;;;5038484;28;20205;-75
2021/01/18 01:47:46;;;;;;;10.80;3.03;;;4.20;99.90;;;;;;5038677;28;20206;-74
2021/01/18 01:50:18;;;;;;;13.97;2.83;;;4.10;99.90;;;;;;5038277;28;20207;-74
2021/01/18 01:52:55;;;;;;;6.20;2.70;;;4.10;99.90;;;;;;5037636;28;21008;-74
2021/01/18 01:55:33;;;;;;;6.83;2.43;;;4.10;99.90;;;;;;5031858;28;20235;-74
2021/01/18 01:58:01;;;;;;;9.20;2.30;;;4.10;99.90;;;;;;5039331;28;20210;-75
2021/01/18 02:00:36;;;;;;;6.63;2.47;;;4.20;99.90;;;;;;5021423;28;20250;-73
2021/01/18 02:03:32;;;;;;;6.43;2.47;;;4.20;99.90;;;;;;5037512;28;20491;-74
2021/01/18 02:05:58;;;;;;;12.33;3.63;;;4.20;99.90;;;;;;5038716;28;20636;-75
2021/01/18 02:08:25;;;;;;;4.27;2.63;;;4.10;99.90;;;;;;5017676;28;20221;-74
2021/01/18 02:10:51;;;;;;;7.53;2.70;;;4.10;99.90;;;;;;5018597;28;20648;-76
2021/01/18 02:13:17;;;;;;;8.13;2.93;;;4.20;99.90;;;;;;5034683;28;20219;-75
2021/01/18 02:16:20;;;;;;;12.37;3.00;;;4.30;99.90;;;;;;5035096;28;20209;-75
2021/01/18 02:19:14;;;;;;;8.00;3.03;;;4.20;99.90;;;;;;5036301;28;20296;-75
2021/01/18 02:22:25;;;;;;;9.10;3.20;;;4.20;99.90;;;;;;5038559;28;20290;-75
2021/01/18 02:25:14;;;;;;;4.97;2.97;;;4.20;99.90;;;;;;5024113;28;20717;-73
2021/01/18 02:28:12;;;;;;;6.30;3.63;;;4.10;99.90;;;;;;5040399;28;20214;-74
2021/01/18 02:31:09;;;;;;;6.97;3.00;;;4.10;99.90;;;;;;5040348;28;20283;-75
2021/01/18 02:34:01;;;;;;;10.33;2.87;;;4.10;99.90;;;;;;5038478;28;20293;-74
2021/01/18 02:36:34;;;;;;;10.73;3.70;;;4.00;99.90;;;;;;5039247;28;20233;-74
2021/01/18 02:39:24;;;;;;;15.30;4.63;;;3.90;99.90;;;;;;5036859;28;20205;-74
2021/01/18 02:42:06;;;;;;;14.30;4.23;;;4.00;99.90;;;;;;5040163;28;20283;-74
2021/01/18 02:44:36;;;;;;;7.83;3.70;;;4.00;99.90;;;;;;5043548;28;20226;-74
2021/01/18 02:47:04;;;;;;;9.47;3.53;;;4.00;99.90;;;;;;5036892;28;20256;-74
2021/01/18 02:49:32;;;;;;;10.63;4.03;;;4.00;99.90;;;;;;5030197;28;20212;-74
2021/01/18 02:52:12;;;;;;;9.00;4.00;;;4.00;99.90;;;;;;5040152;28;20200;-73
2021/01/18 02:54:38;;;;;;;7.67;3.60;;;4.00;99.90;;;;;;5021998;28;20208;-74
2021/01/18 02:57:05;;;;;;;7.33;3.80;;;3.90;99.90;;;;;;5023143;28;20751;-73
2021/01/18 02:59:32;;;;;;;9.67;4.00;;;4.00;99.90;;;;;;5042671;28;20235;-74
2021/01/18 03:02:18;;;;;;;6.97;3.93;;;4.00;99.90;;;;;;5042418;28;20240;-74
2021/01/18 03:05:02;;;;;;;7.87;4.27;;;4.00;99.90;;;;;;5044208;28;20271;-75
2021/01/18 03:07:42;;;;;;;10.97;3.73;;;4.00;99.90;;;;;;5024446;28;20235;-74
2021/01/18 03:10:18;;;;;;;11.00;3.80;;;4.00;99.90;;;;;;5039105;28;20213;-74
2021/01/18 03:13:11;;;;;;;7.63;4.47;;;4.10;99.90;;;;;;5022754;28;20308;-74
2021/01/18 03:15:45;;;;;;;12.40;4.63;;;4.10;99.90;;;;;;5040250;28;20210;-74
2021/01/18 03:18:18;;;;;;;12.50;4.57;;;4.00;99.90;;;;;;5035339;28;20193;-74
2021/01/18 03:20:46;;;;;;;15.07;4.43;;;4.00;99.90;;;;;;5035155;28;20255;-74
2021/01/18 03:23:13;;;;;;;14.33;4.33;;;4.00;99.90;;;;;;5040880;28;20204;-74
2021/01/18 03:25:56;;;;;;;7.53;4.03;;;3.90;99.90;;;;;;5037856;28;20282;-74
2021/01/18 03:28:24;;;;;;;9.47;4.47;;;3.90;99.90;;;;;;5032892;28;20202;-74
2021/01/18 03:30:51;;;;;;;13.73;3.90;;;3.90;99.90;;;;;;5038598;28;20224;-74
2021/01/18 03:33:18;;;;;;;9.67;4.60;;;3.90;99.90;;;;;;5025947;28;20205;-74
2021/01/18 03:35:45;;;;;;;10.70;4.47;;;3.90;99.90;;;;;;5050806;28;20201;-74
2021/01/18 03:38:12;;;;;;;10.27;3.77;;;3.90;99.90;;;;;;5041192;28;20267;-74
2021/01/18 03:40:38;;;;;;;13.00;4.20;;;3.90;99.90;;;;;;5003948;28;20278;-75
2021/01/18 03:43:08;;;;;;;12.23;4.70;;;3.90;99.90;;;;;;5020578;28;20271;-74
2021/01/18 03:45:37;;;;;;;9.13;4.77;;;3.90;99.90;;;;;;5036846;28;20210;-74
2021/01/18 03:48:05;;;;;;;8.10;4.53;;;3.90;99.90;;;;;;5041500;28;20208;-74
2021/01/18 03:50:32;;;;;;;18.50;4.63;;;3.90;99.90;;;;;;5039035;28;20207;-75
2021/01/18 03:52:58;;;;;;;11.93;4.53;;;3.90;99.90;;;;;;5041318;28;20220;-75
2021/01/18 03:55:25;;;;;;;14.63;6.30;;;4.00;99.90;;;;;;5019352;28;20212;-74
2021/01/18 03:57:53;;;;;;;7.47;4.43;;;4.00;99.90;;;;;;5041017;28;20204;-74
2021/01/18 04:00:22;;;;;;;11.00;5.23;;;4.00;99.90;;;;;;5027917;28;20202;-74
2021/01/18 04:02:51;;;;;;;9.33;3.70;;;4.00;99.90;;;;;;5035360;28;20251;-74
2021/01/18 04:05:19;;;;;;;12.43;4.70;;;4.00;99.90;;;;;;5051913;28;20561;-74
2021/01/18 04:07:47;;;;;;;14.17;4.80;;;4.10;99.90;;;;;;5020073;28;20205;-74
2021/01/18 04:10:16;;;;;;;13.83;4.53;;;4.10;99.90;;;;;;5020077;28;20658;-74
2021/01/18 04:12:44;;;;;;;9.97;3.67;;;4.10;99.90;;;;;;5022853;28;20217;-74
2021/01/18 04:15:13;;;;;;;8.33;4.67;;;4.10;99.90;;;;;;5028447;28;20201;-74
2021/01/18 04:17:40;;;;;;;12.47;4.33;;;4.10;99.90;;;;;;5037808;28;20218;-74
2021/01/18 04:20:08;;;;;;;12.30;5.23;;;4.10;99.90;;;;;;5032676;28;20233;-74
2021/01/18 04:22:34;;;;;;;12.03;4.60;;;4.10;99.90;;;;;;5040213;28;20273;-73
2021/01/18 04:25:01;;;;;;;12.50;4.83;;;4.00;99.90;;;;;;5015852;28;582485;-74
2021/01/18 04:27:28;;;;;;;13.40;5.67;;;4.10;99.90;;;;;;5036033;28;20205;-73
2021/01/18 04:29:54;;;;;;;10.00;4.67;;;4.10;99.90;;;;;;5036137;28;20196;-74
2021/01/18 04:32:20;;;;;;;12.73;5.03;;;4.10;99.90;;;;;;5033036;28;20281;-73
2021/01/18 04:34:46;;;;;;;7.70;5.10;;;4.00;99.90;;;;;;5034893;28;20266;-74
2021/01/18 04:37:13;;;;;;;11.73;5.43;;;4.00;99.90;;;;;;5016636;28;20200;-73
2021/01/18 04:39:40;;;;;;;8.30;4.50;;;4.00;99.90;;;;;;5019221;28;20207;-74
2021/01/18 04:42:07;;;;;;;16.63;5.57;;;3.90;99.90;;;;;;5020220;28;21413;-73
2021/01/18 04:44:33;;;;;;;10.63;4.90;;;3.90;99.90;;;;;;5041854;28;20235;-74
2021/01/18 04:47:02;;;;;;;10.13;4.93;;;3.90;99.90;;;;;;5019104;28;20205;-73
2021/01/18 04:49:28;;;;;;;13.87;5.53;;;3.90;99.90;;;;;;5040431;28;20200;-74
2021/01/18 04:51:57;;;;;;;13.83;5.43;;;4.00;99.90;;;;;;5021019;28;20240;-73
2021/01/18 04:54:24;;;;;;;14.13;5.90;;;4.00;99.90;;;;;;5056418;28;20255;-74
2021/01/18 04:57:20;;;;;;;10.27;4.77;;;4.00;99.90;;;;;;5035897;28;20289;-73
2021/01/18 04:59:48;;;;;;;12.53;5.73;;;4.00;99.90;;;;;;5033846;28;20201;-75
2021/01/18 05:02:19;;;;;;;15.07;6.13;;;4.00;99.90;;;;;;5037963;28;20549;-74
2021/01/18 05:04:48;;;;;;;13.10;5.83;;;4.00;99.90;;;;;;5038132;28;20231;-73
2021/01/18 05:07:52;;;;;;;18.57;6.50;;;4.00;99.90;;;;;;5037361;28;20296;-74
2021/01/18 05:10:26;;;;;;;15.37;5.83;;;4.10;99.90;;;;;;5037126;28;20848;-73
2021/01/18 05:12:57;;;;;;;11.23;5.47;;;4.10;99.90;;;;;;5038153;28;20204;-74
2021/01/18 05:15:24;;;;;;;9.13;5.53;;;4.10;99.90;;;;;;5036519;28;20247;-74
2021/01/18 05:17:58;;;;;;;12.37;6.40;;;4.00;99.90;;;;;;5034790;28;20662;-73
2021/01/18 05:20:25;;;;;;;16.50;6.00;;;4.10;99.90;;;;;;5053263;28;20212;-74
2021/01/18 05:22:52;;;;;;;21.83;7.40;;;4.00;99.90;;;;;;5041254;28;20300;-74
2021/01/18 05:25:19;;;;;;;12.43;6.23;;;4.00;99.90;;;;;;5038312;28;20297;-73
2021/01/18 05:28:06;;;;;;;15.93;6.43;;;3.90;99.90;;;;;;5039975;28;20878;-74
2021/01/18 05:30:38;;;;;;;16.23;6.90;;;3.90;99.90;;;;;;5036064;28;20351;-74
2021/01/18 05:33:10;;;;;;;17.10;5.80;;;3.90;99.90;;;;;;5012751;28;20258;-74
2021/01/18 05:35:45;;;;;;;15.30;6.07;;;3.90;99.90;;;;;;5052598;28;20225;-74
2021/01/18 05:38:13;;;;;;;19.60;6.97;;;3.90;99.90;;;;;;5036020;28;20233;-73
2021/01/18 05:40:42;;;;;;;12.07;6.00;;;3.80;99.90;;;;;;5036318;28;20915;-75
2021/01/18 05:43:09;;;;;;;16.47;7.30;;;3.80;99.90;;;;;;5035628;28;20267;-73
2021/01/18 05:45:40;;;;;;;17.60;6.93;;;4.00;99.90;;;;;;5052170;28;20204;-73
2021/01/18 05:48:08;;;;;;;15.77;7.00;;;4.00;99.90;;;;;;5035675;28;20284;-73
2021/01/18 05:50:37;;;;;;;13.87;6.57;;;4.00;99.90;;;;;;5051972;28;20236;-73
2021/01/18 05:53:23;;;;;;;14.00;6.90;;;4.00;99.90;;;;;;5018083;28;20232;-73
2021/01/18 05:55:56;;;;;;;21.00;7.90;;;4.10;99.90;;;;;;5032809;28;20201;-73
2021/01/18 05:58:31;;;;;;;19.20;7.70;;;4.10;99.90;;;;;;5035294;28;20525;-73
2021/01/18 06:00:59;;;;;;;12.80;7.17;;;4.00;99.90;;;;;;5037840;28;20229;-73
2021/01/18 06:03:32;;;;;;;21.67;6.83;;;4.00;99.90;;;;;;5039485;28;20231;-73
2021/01/18 06:05:59;;;;;;;17.97;6.37;;;3.90;99.90;;;;;;5010760;28;20249;-73
2021/01/18 06:08:26;;;;;;;15.80;7.23;;;3.90;99.90;;;;;;5032898;28;20240;-73
2021/01/18 06:10:55;;;;;;;15.13;6.67;;;3.90;99.90;;;;;;5021665;28;20197;-73
2021/01/18 06:13:33;;;;;;;14.80;6.73;;;3.90;99.90;;;;;;5027127;28;20238;-73
2021/01/18 06:15:59;;;;;;;19.37;7.17;;;3.90;99.90;;;;;;5036025;28;20200;-74
2021/01/18 06:18:29;;;;;;;20.57;7.00;;;3.80;99.90;;;;;;5042832;28;20223;-73
2021/01/18 06:20:59;;;;;;;14.27;7.23;;;3.90;99.90;;;;;;5043302;28;20205;-70
2021/01/18 06:23:25;;;;;;;16.23;6.07;;;3.90;99.90;;;;;;5022629;28;20260;-72
2021/01/18 06:25:53;;;;;;;11.13;6.07;;;3.90;99.90;;;;;;5037590;28;20240;-73
2021/01/18 06:28:39;;;;;;;18.60;7.30;;;3.90;99.90;;;;;;5039908;28;20228;-73
2021/01/18 06:31:10;;;;;;;12.70;6.27;;;3.90;99.90;;;;;;5033048;28;20627;-74
2021/01/18 06:33:39;;;;;;;16.33;6.10;;;3.90;99.90;;;;;;5040832;28;20672;-74
2021/01/18 06:36:10;;;;;;;17.20;6.47;;;3.90;99.90;;;;;;5022805;28;20285;-73
2021/01/18 06:38:39;;;;;;;10.53;5.70;;;3.90;99.90;;;;;;5041946;28;20212;-74
2021/01/18 06:41:08;;;;;;;19.43;7.60;;;3.90;99.90;;;;;;5021120;28;20226;-74
2021/01/18 06:43:36;;;;;;;12.50;5.83;;;3.80;99.90;;;;;;5036425;28;20736;-74
2021/01/18 06:46:24;;;;;;;11.57;5.17;;;3.90;99.90;;;;;;5023714;28;20201;-74
2021/01/18 06:48:52;;;;;;;18.83;6.53;;;3.90;99.90;;;;;;5037226;28;20243;-74
2021/01/18 06:51:24;;;;;;;17.37;6.57;;;3.90;99.90;;;;;;5036819;28;20208;-73
2021/01/18 06:53:52;;;;;;;18.60;6.47;;;3.90;99.90;;;;;;5018088;28;20305;-74
2021/01/18 06:56:21;;;;;;;16.43;7.63;;;3.90;99.90;;;;;;5032083;28;20255;-74
2021/01/18 06:58:53;;;;;;;11.57;5.47;;;3.90;99.90;;;;;;5058794;28;20679;-74
2021/01/18 07:01:37;;;;;;;14.73;5.77;;;3.90;99.90;;;;;;5035839;28;20289;-74
2021/01/18 07:04:13;;;;;;;17.73;6.57;;;3.90;99.90;;;;;;5037110;28;20283;-74
2021/01/18 07:06:56;;;;;;;26.70;6.30;;;3.90;99.90;;;;;;5037928;28;20196;-73
2021/01/18 07:09:26;;;;;;;14.13;6.87;;;3.80;99.90;;;;;;5023265;28;20275;-73
2021/01/18 07:12:03;;;;;;;15.37;7.23;;;3.90;99.90;;;;;;5053049;28;20322;-72
2021/01/18 07:14:31;;;;;;;13.90;6.33;;;3.90;99.90;;;;;;5026174;28;20212;-73
2021/01/18 07:17:09;;;;;;;14.77;6.37;;;4.00;99.90;;;;;;5023113;28;20629;-73
2021/01/18 07:19:45;;;;;;;12.20;7.67;;;3.90;99.90;;;;;;5036477;28;20209;-73
2021/01/18 07:23:07;;;;;;;15.63;6.50;;;4.00;99.90;;;;;;5033326;28;20224;-73
2021/01/18 07:26:07;;;;;;;15.27;7.27;;;3.90;99.90;;;;;;5033157;28;20290;-73
2021/01/18 07:28:34;;;;;;;15.20;6.33;;;4.00;99.90;;;;;;5021527;28;20200;-73
2021/01/18 07:31:01;;;;;;;21.40;6.57;;;4.10;99.90;;;;;;5023692;28;20200;-74
2021/01/18 07:33:28;;;;;;;15.70;7.07;;;4.00;99.90;;;;;;5050492;28;20946;-73
2021/01/18 07:35:54;;;;;;;16.67;6.70;;;4.00;99.90;;;;;;5038142;28;21370;-73
2021/01/18 07:38:24;;;;;;;18.03;7.83;;;4.00;99.90;;;;;;5051994;28;20222;-74
2021/01/18 07:41:06;;;;;;;18.80;6.17;;;4.00;99.90;;;;;;5031173;28;20253;-74
2021/01/18 07:43:40;;;;;;;16.97;7.40;;;4.00;99.90;;;;;;5036501;28;20202;-73
2021/01/18 07:46:30;;;;;;;15.13;5.57;;;4.00;99.90;;;;;;5036853;28;20619;-74
2021/01/18 07:48:58;;;;;;;20.17;6.23;;;4.00;99.90;;;;;;5043133;28;20280;-77
2021/01/18 07:51:33;;;;;;;14.73;6.67;;;4.00;99.90;;;;;;5042007;28;20209;-76
2021/01/18 07:53:59;;;;;;;20.83;7.03;;;4.10;99.90;;;;;;5038099;28;20682;-73
2021/01/18 07:56:27;;;;;;;20.20;5.90;;;4.10;99.90;;;;;;5039015;28;20223;-74
2021/01/18 07:59:01;;;;;;;15.10;6.53;;;4.00;99.90;;;;;;5035512;28;20289;-73
2021/01/18 08:01:28;;;;;;;14.30;6.60;;;4.00;99.90;;;;;;5052018;28;20285;-75
2021/01/18 08:04:20;;;;;;;12.37;6.13;;;4.00;99.90;;;;;;5041732;28;20208;-74
2021/01/18 08:07:16;;;;;;;17.20;5.40;;;4.00;99.90;;;;;;5042860;28;20221;-74
2021/01/18 08:09:52;;;;;;;14.23;6.00;;;4.00;99.90;;;;;;5010717;28;20215;-75
2021/01/18 08:12:31;;;;;;;16.23;6.73;;;3.90;99.90;;;;;;5039212;28;20357;-72
2021/01/18 08:15:07;;;;;;;12.67;6.50;;;3.90;99.90;;;;;;5028500;28;20535;-74
2021/01/18 08:17:34;;;;;;;14.70;7.17;;;3.90;99.90;;;;;;5037328;28;20323;-75
2021/01/18 08:20:16;;;;;;;10.20;6.47;;;3.90;99.90;;;;;;5052370;28;20236;-75
2021/01/18 08:22:43;;;;;;;19.30;6.70;;;3.90;99.90;;;;;;5055307;28;20239;-75
2021/01/18 08:25:09;;;;;;;19.20;6.70;;;3.90;99.90;;;;;;5020985;28;20266;-75
2021/01/18 08:27:46;;;;;;;13.57;6.83;;;3.90;99.90;;;;;;5039185;28;20290;-75
2021/01/18 08:30:21;;;;;;;18.73;7.83;;;3.90;99.90;;;;;;5041722;28;20269;-73
2021/01/18 08:33:04;;;;;;;16.93;6.63;;;3.90;99.90;;;;;;5032465;28;20208;-73
2021/01/18 08:35:50;;;;;;;14.30;7.03;;;3.90;99.90;;;;;;5035328;28;20204;-73
2021/01/18 08:38:29;;;;;;;22.23;6.97;;;4.00;99.90;;;;;;5053576;28;20690;-73
2021/01/18 08:41:09;;;;;;;15.10;7.27;;;4.00;99.90;;;;;;5037993;28;20203;-72
2021/01/18 08:43:53;;;;;;;17.00;6.83;;;4.00;99.90;;;;;;5033444;28;20228;-73
2021/01/18 08:46:39;;;;;;;13.70;6.20;;;3.90;99.90;;;;;;5022666;28;20199;-74
2021/01/18 08:49:29;;;;;;;14.70;7.50;;;4.00;99.90;;;;;;5040379;28;20661;-73
2021/01/18 08:51:56;;;;;;;15.03;7.27;;;4.00;99.90;;;;;;5033590;28;20204;-73
2021/01/18 08:54:38;;;;;;;14.57;6.70;;;4.00;99.90;;;;;;5035749;28;20733;-74
2021/01/18 08:57:23;;;;;;;20.87;6.60;;;4.00;99.90;;;;;;5026307;28;20308;-74
2021/01/18 09:00:10;;;;;;;26.00;7.53;;;4.00;99.90;;;;;;5017398;28;20204;-74
2021/01/18 09:02:40;;;;;;;16.53;6.80;;;3.90;99.90;;;;;;5018599;28;20224;-74
2021/01/18 09:05:14;;;;;;;14.57;7.17;;;4.00;99.90;;;;;;5049216;28;20615;-75
2021/01/18 09:07:44;;;;;;;11.70;6.93;;;4.00;99.90;;;;;;5036580;28;20200;-74
2021/01/18 09:10:15;;;;;;;17.97;7.80;;;4.00;99.90;;;;;;5024282;28;20817;-74
2021/01/18 09:12:43;;;;;;;17.43;6.87;;;4.00;99.90;;;;;;5035363;28;20218;-73
2021/01/18 09:15:10;;;;;;;12.93;6.93;;;4.00;99.90;;;;;;5017489;28;20239;-75
2021/01/18 09:17:37;;;;;;;19.23;7.67;;;4.10;99.90;;;;;;5023647;28;20315;-74
2021/01/18 09:20:06;;;;;;;13.17;7.00;;;4.10;99.90;;;;;;5037393;28;20245;-74
2021/01/18 09:22:35;;;;;;;12.67;6.53;;;4.10;99.90;;;;;;5035113;28;20224;-74
2021/01/18 09:25:02;;;;;;;15.07;7.03;;;4.20;99.90;;;;;;5034355;28;20224;-74
2021/01/18 09:27:34;;;;;;;20.33;6.83;;;4.10;99.90;;;;;;5041130;28;20208;-72
2021/01/18 09:30:16;;;;;;;14.27;7.90;;;4.20;99.90;;;;;;5056026;28;20632;-73
2021/01/18 09:32:53;;;;;;;14.07;6.60;;;4.20;99.90;;;;;;5047286;28;20570;-71
2021/01/18 09:35:20;;;;;;;13.33;6.40;;;4.20;99.90;;;;;;5037802;28;20230;-73
2021/01/18 09:37:49;;;;;;;15.77;6.40;;;4.20;99.90;;;;;;5022996;28;20286;-72
2021/01/18 09:40:37;;;;;;;14.03;6.40;;;4.20;99.90;;;;;;5041382;28;20732;-73
2021/01/18 09:43:05;;;;;;;17.83;6.57;;;4.30;99.90;;;;;;5036096;28;20217;-74
2021/01/18 09:45:33;;;;;;;16.93;5.97;;;4.40;99.90;;;;;;5046412;28;20197;-73
2021/01/18 09:48:05;;;;;;;16.27;6.00;;;4.40;99.90;;;;;;5036942;28;20295;-73
2021/01/18 09:50:34;;;;;;;15.47;7.73;;;4.40;99.90;;;;;;5025456;28;20200;-73
2021/01/18 09:53:09;;;;;;;14.47;7.10;;;4.40;99.90;;;;;;5038835;28;20274;-74
2021/01/18 09:55:41;;;;;;;16.40;5.63;;;4.60;99.90;;;;;;5039584;28;20255;-74
2021/01/18 09:58:14;;;;;;;10.47;6.70;;;4.50;99.90;;;;;;5025869;28;20218;-75
2021/01/18 10:00:45;;;;;;;9.93;6.87;;;4.60;99.90;;;;;;5033332;28;20212;-74
2021/01/18 10:03:23;;;;;;;8.43;5.97;;;4.60;99.90;;;;;;5034916;28;20702;-73
2021/01/18 10:05:58;;;;;;;17.00;7.47;;;4.60;99.90;;;;;;5017806;28;20256;-73
2021/01/18 10:08:29;;;;;;;9.60;6.70;;;4.70;99.90;;;;;;5019532;28;20306;-73
2021/01/18 10:10:55;;;;;;;11.00;6.13;;;4.70;99.90;;;;;;5026835;28;20644;-72
2021/01/18 10:13:25;;;;;;;10.73;6.90;;;4.70;99.90;;;;;;5006261;28;20201;-74
2021/01/18 10:15:54;;;;;;;15.27;5.53;;;4.70;99.90;;;;;;5035109;28;20677;-74
2021/01/18 10:18:27;;;;;;;11.70;7.03;;;4.80;99.90;;;;;;5032870;28;20215;-74
2021/01/18 10:20:54;;;;;;;10.67;6.27;;;4.80;99.90;;;;;;5040526;28;20319;-73
2021/01/18 10:23:21;;;;;;;10.63;6.50;;;4.80;99.90;;;;;;5034614;28;20287;-74
2021/01/18 10:25:48;;;;;;;13.23;5.50;;;4.80;99.90;;;;;;5021573;28;20253;-74
2021/01/18 10:28:19;;;;;;;13.07;5.87;;;4.90;99.90;;;;;;5027395;28;20249;-73
2021/01/18 10:30:47;;;;;;;9.87;5.73;;;5.00;99.90;;;;;;5034848;28;20228;-74
2021/01/18 10:33:18;;;;;;;11.03;6.00;;;5.00;99.90;;;;;;5040513;28;20214;-75
2021/01/18 10:35:46;;;;;;;14.87;5.30;;;5.00;99.90;;;;;;5032132;28;20200;-74
2021/01/18 10:38:20;;;;;;;12.00;4.80;;;5.00;99.90;;;;;;5026431;28;20216;-74
2021/01/18 10:41:08;;;;;;;13.80;4.87;;;5.00;99.90;;;;;;5050713;28;20325;-74
2021/01/18 10:43:46;;;;;;;14.73;5.30;;;5.00;99.90;;;;;;5041997;28;20323;-74
2021/01/18 10:46:16;;;;;;;15.40;5.70;;;5.00;99.90;;;;;;5041627;28;20199;-74
2021/01/18 10:48:54;;;;;;;13.77;5.90;;;5.00;99.90;;;;;;5054541;28;20223;-73
2021/01/18 10:51:28;;;;;;;10.73;5.47;;;5.10;99.90;;;;;;5032132;28;20297;-72
2021/01/18 10:54:01;;;;;;;12.80;4.97;;;5.10;99.90;;;;;;5056728;28;20223;-73
2021/01/18 10:56:46;;;;;;;16.07;4.93;;;5.20;99.90;;;;;;5042783;28;20203;-74
2021/01/18 10:59:13;;;;;;;16.73;5.67;;;5.20;99.90;;;;;;5013799;28;21799;-72
2021/01/18 11:01:56;;;;;;;10.83;5.23;;;5.30;99.90;;;;;;5014083;28;20199;-74
2021/01/18 11:04:23;;;;;;;9.07;4.83;;;5.20;99.90;;;;;;5038851;28;20303;-73
2021/01/18 11:06:50;;;;;;;8.13;3.90;;;5.20;99.90;;;;;;5039316;28;20227;-73
2021/01/18 11:09:30;;;;;;;11.57;4.83;;;5.20;99.90;;;;;;5035800;28;20725;-72
2021/01/18 11:11:59;;;;;;;11.33;4.67;;;5.30;99.90;;;;;;5040722;28;20212;-72
2021/01/18 11:14:26;;;;;;;9.00;4.80;;;5.40;99.90;;;;;;5042010;28;20376;-73
2021/01/18 11:16:57;;;;;;;9.53;4.60;;;5.40;99.90;;;;;;5037270;28;20291;-73
2021/01/18 11:19:24;;;;;;;13.13;4.63;;;5.40;99.90;;;;;;5050936;28;20219;-73
2021/01/18 11:21:50;;;;;;;11.87;4.90;;;5.50;99.90;;;;;;5017328;28;20918;-73
2021/01/18 11:24:18;;;;;;;13.13;4.10;;;5.60;99.90;;;;;;5032858;28;20204;-75
2021/01/18 11:26:49;;;;;;;10.07;4.13;;;5.60;99.90;;;;;;5031445;28;20666;-74
2021/01/18 11:29:16;;;;;;;10.23;4.60;;;5.60;99.90;;;;;;5033959;28;20277;-75
2021/01/18 11:31:43;;;;;;;10.00;4.67;;;5.70;99.90;;;;;;5034576;28;20282;-74
2021/01/18 11:34:10;;;;;;;15.57;5.13;;;5.80;99.90;;;;;;5022083;28;20295;-74
2021/01/18 11:36:38;;;;;;;14.70;5.73;;;5.80;99.90;;;;;;5036796;28;20197;-74
2021/01/18 11:39:07;;;;;;;11.83;4.97;;;5.70;99.90;;;;;;5038718;28;20663;-74
2021/01/18 11:41:37;;;;;;;11.07;4.90;;;5.80;99.90;;;;;;5037579;28;20235;-74
2021/01/18 11:44:05;;;;;;;12.73;5.67;;;5.80;99.90;;;;;;5020539;28;20631;-73
2021/01/18 11:46:33;;;;;;;9.33;5.97;;;5.80;99.90;;;;;;5035997;28;20196;-74
2021/01/18 11:49:00;;;;;;;12.07;5.13;;;5.90;99.90;;;;;;5019454;28;20593;-75
2021/01/18 11:51:27;;;;;;;8.83;4.90;;;5.90;99.90;;;;;;5040251;28;20204;-75
2021/01/18 11:53:53;;;;;;;10.30;5.23;;;5.90;99.90;;;;;;5036515;28;20197;-75
2021/01/18 11:56:28;;;;;;;12.43;5.43;;;5.90;99.90;;;;;;5018606;28;20648;-74
2021/01/18 11:58:54;;;;;;;13.77;5.40;;;5.90;99.90;;;;;;5034600;28;20202;-74
2021/01/18 12:01:21;;;;;;;8.33;5.77;;;6.00;99.90;;;;;;5005092;28;20216;-75
2021/01/18 12:03:47;;;;;;;7.33;4.77;;;6.10;99.90;;;;;;5012986;28;20258;-76
2021/01/18 12:06:13;;;;;;;9.60;5.00;;;6.10;99.90;;;;;;5036469;28;20198;-74
2021/01/18 12:08:40;;;;;;;13.27;5.50;;;6.30;99.90;;;;;;5014463;28;20267;-75
2021/01/18 12:11:06;;;;;;;10.70;4.50;;;6.30;99.90;;;;;;5017727;28;20622;-75
2021/01/18 12:13:32;;;;;;;13.67;4.67;;;6.30;99.90;;;;;;5004137;28;20216;-75
2021/01/18 12:15:59;;;;;;;7.73;5.73;;;6.40;99.90;;;;;;5016811;28;20209;-74
2021/01/18 12:18:26;;;;;;;6.80;4.63;;;6.40;99.90;;;;;;5036018;28;20215;-75
2021/01/18 12:20:52;;;;;;;12.27;4.57;;;6.30;99.90;;;;;;5020642;28;20204;-74
2021/01/18 12:23:19;;;;;;;13.77;5.27;;;6.40;99.90;;;;;;5031867;28;20276;-75
2021/01/18 12:25:46;;;;;;;17.03;5.67;;;6.50;99.90;;;;;;5031667;28;20286;-73
2021/01/18 12:28:12;;;;;;;17.60;5.47;;;6.50;99.90;;;;;;5001692;28;20204;-75
2021/01/18 12:30:39;;;;;;;11.73;4.40;;;6.50;99.90;;;;;;5034156;28;20275;-75
2021/01/18 12:33:05;;;;;;;15.97;5.37;;;6.40;99.90;;;;;;5020335;28;20342;-74
2021/01/18 12:35:47;;;;;;;13.03;4.40;;;6.40;99.90;;;;;;5014599;28;20204;-75
2021/01/18 12:38:13;;;;;;;14.23;4.23;;;6.40;99.90;;;;;;5033808;28;20208;-75
2021/01/18 12:40:39;;;;;;;12.20;4.33;;;6.40;99.90;;;;;;5024412;28;20299;-75
2021/01/18 12:43:06;;;;;;;9.90;3.80;;;6.40;99.90;;;;;;5031313;28;20246;-75
2021/01/18 12:45:32;;;;;;;10.53;3.40;;;6.40;99.90;;;;;;5051794;28;20207;-75
2021/01/18 12:47:59;;;;;;;9.33;3.63;;;6.40;99.90;;;;;;5016269;28;20651;-75
2021/01/18 12:50:25;;;;;;;6.97;3.50;;;6.50;99.90;;;;;;5014869;28;20780;-75
2021/01/18 12:52:51;;;;;;;10.73;3.87;;;6.50;99.90;;;;;;5048042;28;20270;-75
2021/01/18 12:55:20;;;;;;;12.07;3.63;;;6.50;99.90;;;;;;5034967;28;20209;-74
2021/01/18 12:57:50;;;;;;;12.40;4.13;;;6.50;99.90;;;;;;5031496;28;20212;-75
2021/01/18 13:00:17;;;;;;;9.17;4.40;;;6.50;99.90;;;;;;5036630;28;20271;-75
2021/01/18 13:02:43;;;;;;;7.60;3.57;;;6.50;99.90;;;;;;5030417;28;20240;-75
2021/01/18 13:05:11;;;;;;;11.73;4.10;;;6.50;99.90;;;;;;5038453;28;20277;-73
2021/01/18 13:07:57;;;;;;;13.80;3.77;;;6.50;99.90;;;;;;5019827;28;20216;-73
2021/01/18 13:10:24;;;;;;;12.83;3.60;;;6.50;99.90;;;;;;5017275;28;20204;-74
2021/01/18 13:12:50;;;;;;;13.93;4.17;;;6.40;99.90;;;;;;5032331;28;20232;-74
2021/01/18 13:15:20;;;;;;;6.57;3.83;;;6.50;99.90;;;;;;5017784;28;20278;-74